Time;durP1;ratioP1;P1;durP2;ratioP2;P2;SDS_P1;SDS_P2;PMS_P1;PMS_P2;Temp;Humidity;BMP_temperature;BMP_pressure;BME280_temperature;BME280_humidity;BME280_pressure;Samples;Min_cycle;Max_cycle;Signal;HPM_P1;HPM_P2
2024/02/11 00:00:38;;;;;;;0.73;0.40;;;;;;;28.85;60.94;101593.59;5038936;28;66307;-35
2024/02/11 00:03:09;;;;;;;0.40;0.35;;;;;;;28.90;61.36;101598.44;5038651;28;69935;-34
2024/02/11 00:05:39;;;;;;;3.08;0.45;;;;;;;28.79;61.17;101594.38;5036456;28;66733;-35
2024/02/11 00:08:10;;;;;;;3.50;0.40;;;;;;;28.88;61.56;101609.41;5038442;28;69141;-35
2024/02/11 00:10:41;;;;;;;0.77;0.43;;;;;;;28.90;61.40;101615.47;5038767;28;66195;-36
2024/02/11 00:13:12;;;;;;;3.55;0.50;;;;;;;28.87;62.11;101621.25;5036483;28;69721;-36
2024/02/11 00:15:43;;;;;;;1.77;0.40;;;;;;;28.90;61.47;101626.28;5038366;28;66520;-34
2024/02/11 00:18:17;;;;;;;0.52;0.50;;;;;;;28.95;61.43;101631.97;5037612;28;70077;-35
2024/02/11 00:20:48;;;;;;;0.32;0.30;;;;;;;28.92;62.06;101628.81;5035282;28;66025;-35
2024/02/11 00:23:18;;;;;;;1.60;1.00;;;;;;;28.95;62.86;101645.47;5035716;28;70713;-39
2024/02/11 00:25:53;;;;;;;1.85;1.67;;;;;;;28.75;63.27;101609.25;5038107;28;66271;-35
2024/02/11 00:28:25;;;;;;;2.20;1.98;;;;;;;28.93;65.30;101642.09;5038131;28;70134;-36
2024/02/11 00:30:56;;;;;;;4.40;2.10;;;;;;;28.98;65.47;101643.41;5036251;28;66305;-36
2024/02/11 00:33:26;;;;;;;5.65;2.05;;;;;;;28.99;64.91;101639.69;5035540;28;69616;-36
2024/02/11 00:35:59;;;;;;;2.45;2.25;;;;;;;28.98;65.29;101638.00;5034988;28;65783;-35
2024/02/11 00:38:31;;;;;;;2.40;2.20;;;;;;;29.00;66.28;101646.75;5035591;28;69739;-35
2024/02/11 00:41:03;;;;;;;2.65;2.22;;;;;;;29.02;66.22;101644.69;5032484;28;66369;-35
2024/02/11 00:43:36;;;;;;;3.28;2.50;;;;;;;29.02;66.70;101648.22;5038902;28;70627;-36
2024/02/11 00:46:08;;;;;;;2.88;2.30;;;;;;;29.04;66.24;101642.69;5037998;28;66643;-35
2024/02/11 00:48:39;;;;;;;5.00;2.97;;;;;;;29.09;67.86;101656.47;5037289;28;70617;-35
2024/02/11 00:51:10;;;;;;;4.47;2.13;;;;;;;29.07;67.05;101653.09;5037203;28;66129;-37
2024/02/11 00:53:40;;;;;;;2.70;2.47;;;;;;;29.15;67.44;101666.50;5037455;28;70076;-35
2024/02/11 00:56:12;;;;;;;2.53;2.33;;;;;;;29.12;67.58;101661.50;5035239;28;66493;-35
2024/02/11 00:58:43;;;;;;;2.45;2.25;;;;;;;29.17;67.80;101659.06;5035829;28;70218;-35
2024/02/11 01:01:14;;;;;;;18.80;2.58;;;;;;;29.18;68.60;101660.72;5034237;28;66581;-36
2024/02/11 01:03:44;;;;;;;6.55;2.40;;;;;;;29.25;67.70;101667.03;5040075;28;70609;-35
2024/02/11 01:06:15;;;;;;;4.88;2.60;;;;;;;29.05;68.17;101633.53;5040276;28;65644;-35
2024/02/11 01:08:46;;;;;;;10.57;2.88;;;;;;;29.29;68.61;101678.31;5037567;28;70089;-34
2024/02/11 01:11:18;;;;;;;2.58;2.38;;;;;;;29.23;68.66;101677.19;5035920;28;66281;-36
2024/02/11 01:13:49;;;;;;;12.15;3.03;;;;;;;29.30;68.51;101670.00;5041766;28;69842;-37
2024/02/11 01:16:20;;;;;;;5.95;3.38;;;;;;;29.31;67.68;101687.91;5031476;28;66237;-35
2024/02/11 01:18:51;;;;;;;4.55;4.25;;;;;;;29.24;65.97;101686.97;5043118;28;69499;-36
2024/02/11 01:21:23;;;;;;;6.25;4.65;;;;;;;29.23;64.47;101693.41;5042755;28;66142;-35
2024/02/11 01:23:54;;;;;;;6.18;5.43;;;;;;;29.23;64.42;101698.81;5041572;28;70213;-36
2024/02/11 01:26:24;;;;;;;6.45;5.22;;;;;;;29.16;64.36;101706.00;5043088;28;66640;-35
2024/02/11 01:28:55;;;;;;;5.00;4.50;;;;;;;29.17;64.21;101707.69;5040338;28;70248;-35
2024/02/11 01:31:25;;;;;;;5.10;4.70;;;;;;;29.18;63.20;101715.59;5039041;28;66733;-36
2024/02/11 01:33:56;;;;;;;12.40;5.30;;;;;;;29.24;63.71;101719.41;5040673;28;69577;-35
2024/02/11 01:36:27;;;;;;;5.63;4.78;;;;;;;29.18;63.44;101717.47;5041533;28;66518;-35
2024/02/11 01:38:57;;;;;;;5.78;5.38;;;;;;;29.19;63.53;101719.13;5038986;28;70283;-35
2024/02/11 01:41:28;;;;;;;6.00;5.43;;;;;;;29.20;63.23;101711.84;5041875;28;66248;-35
2024/02/11 01:44:00;;;;;;;7.40;5.03;;;;;;;29.23;63.03;101716.91;5040321;28;70066;-36
2024/02/11 01:46:32;;;;;;;5.13;4.70;;;;;;;29.22;63.44;101721.44;5041055;28;67577;-36
2024/02/11 01:49:04;;;;;;;5.93;5.43;;;;;;;29.22;63.16;101709.81;5038553;28;70098;-36
2024/02/11 01:51:36;;;;;;;7.13;4.63;;;;;;;29.24;63.80;101714.00;5038502;28;66531;-36
2024/02/11 01:54:06;;;;;;;8.77;7.93;;;;;;;29.28;63.04;101720.72;5039843;28;70666;-36
2024/02/11 01:56:39;;;;;;;8.77;8.07;;;;;;;29.27;62.79;101719.03;5040130;28;65867;-37
2024/02/11 01:59:10;;;;;;;13.57;5.90;;;;;;;29.29;62.63;101716.97;5037935;28;70030;-36
2024/02/11 02:01:41;;;;;;;6.57;5.97;;;;;;;29.25;62.54;101721.06;5039019;28;66065;-36
2024/02/11 02:04:12;;;;;;;7.13;5.93;;;;;;;29.31;62.28;101728.44;5039266;28;70462;-38
2024/02/11 02:06:43;;;;;;;7.53;6.90;;;;;;;29.31;62.62;101725.72;5038726;28;66804;-35
2024/02/11 02:09:14;;;;;;;10.70;6.28;;;;;;;29.36;62.44;101726.00;5040204;28;70972;-35
2024/02/11 02:11:45;;;;;;;11.70;6.30;;;;;;;29.31;62.05;101725.72;5040386;28;65286;-35
2024/02/11 02:14:16;;;;;;;11.18;6.45;;;;;;;29.34;62.27;101725.34;5036277;28;70046;-34
2024/02/11 02:16:47;;;;;;;6.95;6.25;;;;;;;29.36;62.44;101733.25;5040133;28;66275;-34
2024/02/11 02:19:17;;;;;;;6.32;5.82;;;;;;;29.38;61.68;101732.03;5036502;28;70195;-34
2024/02/11 02:21:51;;;;;;;9.07;5.63;;;;;;;29.37;62.31;101724.97;5038704;28;67319;-35
2024/02/11 02:24:22;;;;;;;6.28;5.75;;;;;;;29.39;62.63;101731.03;5038871;28;69842;-34
2024/02/11 02:26:52;;;;;;;8.43;7.07;;;;;;;29.45;62.02;101728.56;5035988;28;66668;-34
2024/02/11 02:29:23;;;;;;;14.30;5.97;;;;;;;29.48;62.37;101725.50;5038605;28;70531;-35
2024/02/11 02:31:54;;;;;;;7.60;6.53;;;;;;;29.53;61.87;101731.16;5038802;28;67716;-33
2024/02/11 02:34:24;;;;;;;7.13;6.30;;;;;;;29.57;61.88;101730.59;5038280;28;70221;-33
2024/02/11 02:36:55;;;;;;;11.75;6.05;;;;;;;29.56;61.75;101728.94;5039708;28;65838;-36
2024/02/11 02:39:26;;;;;;;9.75;6.25;;;;;;;29.60;61.35;101727.50;5039596;28;69510;-36
2024/02/11 02:41:57;;;;;;;7.15;6.05;;;;;;;29.63;61.46;101723.63;5037150;28;65809;-34
2024/02/11 02:44:28;;;;;;;13.90;6.68;;;;;;;29.65;61.50;101721.56;5037251;28;70439;-34
2024/02/11 02:46:59;;;;;;;7.43;6.30;;;;;;;29.69;61.41;101727.41;5040744;28;66143;-35
2024/02/11 02:49:30;;;;;;;6.80;6.20;;;;;;;29.69;61.20;101722.84;5037769;28;69974;-34
2024/02/11 02:52:02;;;;;;;7.68;6.00;;;;;;;29.74;61.05;101715.00;5040900;28;66069;-34
2024/02/11 02:54:33;;;;;;;6.93;5.90;;;;;;;29.71;60.38;101720.78;5039145;28;70148;-34
2024/02/11 02:57:04;;;;;;;7.18;6.55;;;;;;;29.76;60.08;101717.53;5037608;28;65997;-34
2024/02/11 02:59:36;;;;;;;15.63;6.95;;;;;;;29.59;60.63;101679.06;5039563;28;69203;-33
2024/02/11 03:02:07;;;;;;;7.18;5.75;;;;;;;29.80;60.20;101711.50;5039557;28;65703;-33
2024/02/11 03:04:38;;;;;;;7.87;6.80;;;;;;;29.82;60.07;101716.75;5029310;28;70112;-34
2024/02/11 03:07:09;;;;;;;10.23;6.40;;;;;;;29.83;60.21;101713.81;5039561;28;66163;-35
2024/02/11 03:09:39;;;;;;;8.38;6.40;;;;;;;29.91;59.72;101709.34;5039888;28;70251;-34
2024/02/11 03:12:10;;;;;;;9.65;6.53;;;;;;;29.94;59.68;101700.81;5036454;28;65822;-36
2024/02/11 03:14:40;;;;;;;10.02;7.45;;;;;;;29.99;60.20;101695.66;5041031;28;70092;-35
2024/02/11 03:17:11;;;;;;;8.38;7.75;;;;;;;30.04;59.34;101701.34;5040128;28;66616;-35
2024/02/11 03:19:43;;;;;;;60.40;31.00;;;;;;;30.03;60.01;101699.66;5039350;28;70818;-34
2024/02/11 03:22:15;;;;;;;44.33;29.73;;;;;;;30.09;60.25;101696.19;5039750;28;66101;-36
2024/02/11 03:24:45;;;;;;;35.05;17.73;;;;;;;30.11;59.23;101694.09;5037541;28;70562;-34
2024/02/11 03:27:16;;;;;;;12.48;10.90;;;;;;;30.15;59.19;101684.56;5037413;28;66949;-35
2024/02/11 03:29:47;;;;;;;10.98;9.27;;;;;;;30.17;59.10;101687.06;5036253;28;70172;-35
2024/02/11 03:32:17;;;;;;;8.77;8.07;;;;;;;30.19;59.21;101707.50;5036563;28;66074;-36
2024/02/11 03:34:48;;;;;;;10.70;7.40;;;;;;;30.22;59.67;101696.28;5036843;28;69184;-36
2024/02/11 03:37:19;;;;;;;11.45;7.40;;;;;;;30.21;58.91;101689.19;5037886;28;66563;-36
2024/02/11 03:39:50;;;;;;;8.48;7.68;;;;;;;30.30;58.84;101691.78;5033880;28;70536;-35
2024/02/11 03:42:20;;;;;;;9.65;7.43;;;;;;;30.32;58.40;101684.31;5038325;28;66270;-36
2024/02/11 03:44:51;;;;;;;10.70;7.82;;;;;;;30.37;58.72;101682.69;5038040;28;69376;-35
2024/02/11 03:47:22;;;;;;;8.55;7.00;;;;;;;30.37;58.32;101677.28;5036023;28;66383;-36
2024/02/11 03:49:53;;;;;;;8.60;6.63;;;;;;;30.43;58.57;101681.06;5038940;28;70451;-35
2024/02/11 03:52:24;;;;;;;8.48;6.72;;;;;;;30.46;58.88;101669.81;5037861;28;66521;-33
2024/02/11 03:54:55;;;;;;;9.30;6.72;;;;;;;30.50;58.72;101661.09;5035960;28;69549;-34
2024/02/11 03:57:26;;;;;;;7.60;7.00;;;;;;;30.55;58.04;101652.38;5038182;28;65855;-35
2024/02/11 03:59:56;;;;;;;11.45;6.80;;;;;;;30.53;57.60;101654.44;5037959;28;69510;-35
2024/02/11 04:02:27;;;;;;;7.60;6.95;;;;;;;30.54;58.39;101642.59;5034677;28;65495;-34
2024/02/11 04:04:58;;;;;;;8.10;7.40;;;;;;;30.60;57.92;101644.50;5037518;28;69594;-34
2024/02/11 04:07:31;;;;;;;7.90;6.82;;;;;;;30.56;58.20;101626.97;5035521;28;66064;-34
2024/02/11 04:10:17;;;;;;;10.55;6.38;;;;;;;30.61;58.14;101624.50;5036783;28;69867;-36
2024/02/11 04:12:48;;;;;;;9.27;6.47;;;;;;;30.61;58.16;101618.25;5035072;28;66825;-36
2024/02/11 04:15:22;;;;;;;8.30;7.53;;;;;;;30.68;57.98;101627.25;5035979;28;70730;-35
2024/02/11 04:18:14;;;;;;;8.10;7.10;;;;;;;30.71;58.04;101624.97;5037440;28;43278;-35
2024/02/11 04:20:45;;;;;;;7.82;6.63;;;;;;;30.75;57.58;101613.72;5037375;28;70880;-35
2024/02/11 04:23:16;;;;;;;9.32;6.43;;;;;;;30.79;57.71;101605.00;5038144;28;66139;-36
2024/02/11 04:25:47;;;;;;;7.07;6.40;;;;;;;30.82;57.52;101604.63;5037884;28;70127;-35
2024/02/11 04:28:20;;;;;;;7.57;6.82;;;;;;;30.89;56.90;101607.34;5037645;28;66371;-35
2024/02/11 04:30:51;;;;;;;7.05;6.15;;;;;;;30.91;56.97;101595.28;5036063;28;70508;-36
2024/02/11 04:33:22;;;;;;;8.43;5.88;;;;;;;30.95;57.03;101595.69;5035724;28;66194;-35
2024/02/11 04:35:52;;;;;;;6.20;5.70;;;;;;;30.98;55.98;101591.75;5036314;28;70497;-34
2024/02/11 04:38:23;;;;;;;5.88;5.47;;;;;;;31.01;55.97;101594.03;5036507;28;66720;-34
2024/02/11 04:40:55;;;;;;;6.68;6.05;;;;;;;31.03;55.98;101587.38;5034532;28;68953;-35
2024/02/11 04:43:25;;;;;;;5.80;5.30;;;;;;;31.04;57.01;101583.66;5036928;28;66802;-36
2024/02/11 04:45:57;;;;;;;5.55;5.05;;;;;;;31.11;56.13;101581.78;5037919;28;69960;-36
2024/02/11 04:48:28;;;;;;;6.28;5.82;;;;;;;31.14;56.11;101575.94;5036019;28;65395;-36
2024/02/11 04:50:59;;;;;;;7.13;6.43;;;;;;;31.16;55.85;101573.88;5037002;28;70254;-35
2024/02/11 04:53:30;;;;;;;7.50;6.28;;;;;;;31.24;56.07;101572.84;5034325;28;66547;-34
2024/02/11 04:56:00;;;;;;;7.05;6.47;;;;;;;31.25;56.23;101562.84;5036717;28;69176;-35
2024/02/11 04:58:32;;;;;;;6.47;5.82;;;;;;;31.28;56.09;101559.69;5037768;28;66814;-35
2024/02/11 05:01:03;;;;;;;7.30;6.10;;;;;;;31.32;55.93;101552.84;5038816;28;70486;-36
2024/02/11 05:03:34;;;;;;;10.45;6.07;;;;;;;31.30;55.67;101542.19;5037040;28;65857;-35
2024/02/11 05:06:07;;;;;;;7.07;6.38;;;;;;;31.36;55.36;101530.53;5011805;28;70026;-34
2024/02/11 05:08:38;;;;;;;11.30;6.50;;;;;;;31.43;55.74;101533.28;5037197;28;66118;-34
2024/02/11 05:11:10;;;;;;;11.55;6.07;;;;;;;31.42;54.98;101518.03;5036200;28;71392;-34
2024/02/11 05:13:43;;;;;;;7.55;5.97;;;;;;;31.51;55.63;101518.66;5033751;28;65910;-35
2024/02/11 05:16:15;;;;;;;6.63;6.13;;;;;;;31.45;55.50;101504.06;5033219;28;70421;-36
2024/02/11 05:18:45;;;;;;;5.87;5.37;;;;;;;31.42;55.56;101504.47;5038184;28;66248;-36
2024/02/11 05:21:19;;;;;;;7.00;6.30;;;;;;;31.51;55.19;101502.38;5035694;28;70658;-35
2024/02/11 05:23:50;;;;;;;11.60;5.93;;;;;;;31.52;55.02;101507.59;5050142;28;66210;-34
2024/02/11 05:26:21;;;;;;;7.05;6.35;;;;;;;31.58;55.13;101493.22;5037557;28;69746;-34
2024/02/11 05:28:52;;;;;;;6.38;5.88;;;;;;;31.61;54.69;101490.06;5037264;28;66651;-35
2024/02/11 05:31:22;;;;;;;6.47;5.90;;;;;;;31.66;54.49;101477.78;5035567;28;70163;-35
2024/02/11 05:33:55;;;;;;;7.30;5.43;;;;;;;31.62;54.16;101469.19;5038564;28;65573;-34
2024/02/11 05:36:26;;;;;;;5.93;5.47;;;;;;;31.64;54.26;101467.13;5037184;28;70781;-35
2024/02/11 05:38:57;;;;;;;7.85;5.90;;;;;;;31.73;54.43;101459.59;5036955;28;66802;-35
2024/02/11 05:41:28;;;;;;;6.23;5.67;;;;;;;31.70;53.87;101454.59;5036966;28;70377;-36
2024/02/11 05:43:58;;;;;;;6.43;5.93;;;;;;;31.85;53.38;101459.78;5037641;28;65827;-36
2024/02/11 05:46:29;;;;;;;5.75;5.25;;;;;;;31.84;53.23;101450.78;5037320;28;69237;-40
2024/02/11 05:49:00;;;;;;;10.95;5.45;;;;;;;31.86;53.16;101440.56;5037497;28;64888;-33
2024/02/11 05:51:33;;;;;;;5.78;5.28;;;;;;;31.91;52.84;101432.66;5035642;28;70165;-35
2024/02/11 05:54:04;;;;;;;6.75;6.05;;;;;;;31.95;52.84;101423.03;5039283;28;66718;-35
2024/02/11 05:56:34;;;;;;;6.72;5.25;;;;;;;31.97;52.85;101423.66;5038936;28;70348;-34
2024/02/11 05:59:05;;;;;;;7.70;5.90;;;;;;;31.99;52.45;101413.41;5036254;28;66015;-35
2024/02/11 06:01:37;;;;;;;10.15;9.45;;;;;;;31.99;53.87;101412.59;5039369;28;71323;-34
2024/02/11 06:04:07;;;;;;;12.88;8.00;;;;;;;32.03;53.33;101406.50;5037725;28;64895;-36
2024/02/11 06:06:39;;;;;;;7.68;7.18;;;;;;;32.09;52.75;101399.38;5035650;28;70306;-35
2024/02/11 06:09:13;;;;;;;7.65;6.97;;;;;;;32.08;53.20;101386.03;5036758;28;66122;-35
2024/02/11 06:11:43;;;;;;;8.07;7.40;;;;;;;32.10;53.46;101390.19;5038045;28;69129;-37
2024/02/11 06:14:14;;;;;;;8.18;7.57;;;;;;;32.18;53.54;101391.81;5037300;28;65199;-35
2024/02/11 06:16:45;;;;;;;7.87;7.20;;;;;;;32.18;53.75;101375.53;5041520;28;69981;-34
2024/02/11 06:19:16;;;;;;;7.63;6.93;;;;;;;32.23;53.39;101373.00;5040073;28;66298;-35
2024/02/11 06:21:47;;;;;;;8.77;6.80;;;;;;;32.20;53.91;101363.41;5039635;28;70825;-35
2024/02/11 06:24:17;;;;;;;11.13;5.95;;;;;;;32.19;53.29;101358.22;5040834;28;65921;-36
2024/02/11 06:26:50;;;;;;;5.65;5.15;;;;;;;31.94;52.62;101320.97;5040059;28;70313;-35
2024/02/11 06:29:21;;;;;;;12.82;4.60;;;;;;;32.11;52.07;101358.47;5040084;28;66504;-35
2024/02/11 06:31:52;;;;;;;4.68;4.18;;;;;;;32.03;51.92;101338.66;5040144;28;69597;-36
2024/02/11 06:34:22;;;;;;;3.80;3.50;;;;;;;32.01;51.25;101337.22;5039059;28;65851;-34
2024/02/11 06:36:55;;;;;;;3.30;3.10;;;;;;;31.92;51.35;101325.78;5040443;28;70313;-35
2024/02/11 06:39:26;;;;;;;25.27;3.42;;;;;;;31.88;50.73;101329.13;5039360;28;65853;-35
2024/02/11 06:42:02;;;;;;;2.85;2.65;;;;;;;31.67;50.34;101290.41;5039180;28;69728;-35
2024/02/11 06:44:33;;;;;;;2.63;2.42;;;;;;;31.78;50.28;101300.56;5040585;28;65897;-35
2024/02/11 06:47:04;;;;;;;2.93;1.97;;;;;;;31.77;49.66;101306.22;5040865;28;69900;-35
2024/02/11 06:49:40;;;;;;;1.98;1.88;;;;;;;31.86;50.43;101313.06;5031543;28;66201;-35
2024/02/11 06:52:11;;;;;;;2.22;1.90;;;;;;;31.76;50.17;101291.84;5040547;28;70168;-35
2024/02/11 06:54:42;;;;;;;1.63;1.52;;;;;;;31.74;49.79;101309.38;5038939;28;65743;-36
2024/02/11 06:57:14;;;;;;;1.42;1.33;;;;;;;31.78;49.88;101302.44;5038662;28;70019;-36
2024/02/11 06:59:45;;;;;;;1.70;1.60;;;;;;;31.80;49.79;101292.22;5037232;28;65891;-35
2024/02/11 07:02:15;;;;;;;1.92;1.10;;;;;;;31.73;49.53;101291.41;5038077;28;70146;-35
2024/02/11 07:04:46;;;;;;;1.58;1.45;;;;;;;31.72;49.79;101284.34;5040498;28;65964;-35
2024/02/11 07:07:17;;;;;;;2.80;1.00;;;;;;;31.73;49.71;101286.00;5039446;28;69956;-39
2024/02/11 07:09:48;;;;;;;1.00;0.90;;;;;;;31.75;49.32;101278.47;5029138;28;66600;-35
2024/02/11 07:12:19;;;;;;;1.10;1.00;;;;;;;31.73;49.12;101264.28;5039767;28;69167;-36
2024/02/11 07:14:50;;;;;;;0.80;0.80;;;;;;;31.77;49.54;101276.38;5038369;28;66469;-36
2024/02/11 07:17:21;;;;;;;1.10;0.88;;;;;;;31.68;49.05;101272.25;5037840;28;70495;-35
2024/02/11 07:19:52;;;;;;;1.55;0.95;;;;;;;31.71;49.47;101266.41;5039738;28;66475;-35
2024/02/11 07:22:23;;;;;;;1.20;0.93;;;;;;;31.70;49.31;101256.59;5039842;28;69940;-36
2024/02/11 07:24:54;;;;;;;2.75;0.90;;;;;;;31.71;48.95;101250.97;5038330;28;66786;-38
2024/02/11 07:27:26;;;;;;;0.73;0.68;;;;;;;31.71;49.25;101244.72;5029362;28;69818;-35
2024/02/11 07:29:57;;;;;;;1.17;0.93;;;;;;;31.70;49.11;101226.75;5044665;28;66309;-36
2024/02/11 07:32:28;;;;;;;0.77;0.50;;;;;;;31.76;48.37;101225.88;5039436;28;70603;-36
2024/02/11 07:34:59;;;;;;;0.95;0.82;;;;;;;31.76;48.95;101223.16;5036690;28;65330;-37
2024/02/11 07:37:29;;;;;;;0.80;0.70;;;;;;;31.80;48.51;101229.84;5039392;28;69857;-35
2024/02/11 07:40:00;;;;;;;0.52;0.52;;;;;;;31.84;48.44;101222.91;5040190;28;66040;-37
2024/02/11 07:42:30;;;;;;;1.05;0.82;;;;;;;31.85;48.55;101223.78;5039808;28;69964;-35
2024/02/11 07:45:01;;;;;;;0.70;0.52;;;;;;;31.77;48.16;101216.72;5038497;28;65981;-35
2024/02/11 07:47:33;;;;;;;1.30;0.73;;;;;;;31.87;48.43;101214.34;5039309;28;70495;-35
2024/02/11 07:50:04;;;;;;;0.70;0.70;;;;;;;31.86;48.37;101220.00;5040394;28;65857;-35
2024/02/11 07:52:35;;;;;;;0.40;0.40;;;;;;;31.87;48.16;101208.09;5037722;28;68895;-36
2024/02/11 07:55:11;;;;;;;1.80;0.60;;;;;;;31.93;47.88;101213.50;5039728;28;66150;-36
2024/02/11 07:57:42;;;;;;;0.90;0.77;;;;;;;31.94;48.24;101209.75;5038218;28;69650;-37
2024/02/11 08:00:16;;;;;;;1.48;0.60;;;;;;;32.04;47.97;101198.41;5034503;28;67266;-38
2024/02/11 08:02:46;;;;;;;0.65;0.65;;;;;;;31.99;47.85;101180.06;5029922;28;70100;-36
2024/02/11 08:05:17;;;;;;;0.73;0.50;;;;;;;32.07;47.96;101184.41;5038415;28;65355;-34
2024/02/11 08:07:49;;;;;;;0.80;0.63;;;;;;;32.09;47.98;101181.44;5036300;28;70972;-37
2024/02/11 08:10:21;;;;;;;1.10;0.70;;;;;;;32.16;47.77;101172.19;5034040;28;66234;-36
2024/02/11 08:12:52;;;;;;;0.52;0.52;;;;;;;32.15;47.61;101169.69;5038508;28;70408;-35
2024/02/11 08:15:23;;;;;;;1.60;0.90;;;;;;;32.16;47.61;101165.94;5039321;28;65812;-35
2024/02/11 08:17:53;;;;;;;3.40;0.50;;;;;;;32.20;47.46;101162.53;5037757;28;70479;-35
2024/02/11 08:20:25;;;;;;;0.80;0.80;;;;;;;32.25;47.33;101170.03;5037266;28;65645;-35
2024/02/11 08:22:56;;;;;;;0.85;0.57;;;;;;;32.26;47.27;101163.53;5039700;28;70034;-37
2024/02/11 08:25:26;;;;;;;4.80;0.90;;;;;;;32.21;47.74;101142.50;5038437;28;65080;-36
2024/02/11 08:27:57;;;;;;;1.85;0.63;;;;;;;32.37;47.69;101157.38;5035921;28;70270;-36
2024/02/11 08:30:28;;;;;;;0.70;0.70;;;;;;;32.30;47.09;101161.22;5039428;28;66164;-36
2024/02/11 08:32:58;;;;;;;3.42;1.60;;;;;;;32.46;48.33;101149.81;5036419;28;69201;-35
2024/02/11 08:35:29;;;;;;;7.18;1.90;;;;;;;32.43;48.95;101153.78;5038093;28;65628;-37
2024/02/11 08:38:00;;;;;;;3.85;2.55;;;;;;;32.61;49.74;101157.59;5038432;28;69783;-36
2024/02/11 08:40:33;;;;;;;3.97;3.60;;;;;;;32.76;50.08;101149.88;5039494;28;65655;-35
2024/02/11 08:43:04;;;;;;;4.15;3.47;;;;;;;32.94;50.27;101163.47;5035392;28;70362;-36
2024/02/11 08:45:35;;;;;;;3.58;3.00;;;;;;;33.10;50.60;101161.22;5038320;28;66542;-35
2024/02/11 08:48:06;;;;;;;3.00;2.75;;;;;;;33.21;50.14;101168.63;5038752;28;70123;-36
2024/02/11 08:50:38;;;;;;;;;;;;;;;33.35;50.53;101156.50;5038073;28;66664;-36
2024/02/11 08:53:08;;;;;;;1.90;1.80;;;;;;;33.50;50.50;101152.53;5038992;28;69839;-36
2024/02/11 08:55:40;;;;;;;1.30;1.10;;;;;;;33.56;50.69;101160.59;5036509;28;65393;-35
2024/02/11 08:58:14;;;;;;;2.65;1.63;;;;;;;33.66;50.50;101161.94;5038663;28;70461;-36
2024/02/11 09:00:44;;;;;;;1.70;1.60;;;;;;;33.75;50.12;101153.19;5036201;28;66471;-37
2024/02/11 09:03:15;;;;;;;1.43;1.30;;;;;;;33.89;50.74;101163.88;5036401;28;69920;-36
2024/02/11 09:05:47;;;;;;;3.80;1.40;;;;;;;33.96;50.85;101159.13;5038130;28;65789;-35
2024/02/11 09:08:20;;;;;;;1.33;1.08;;;;;;;34.05;50.67;101163.22;5038423;28;69316;-36
2024/02/11 09:10:51;;;;;;;1.25;1.10;;;;;;;34.12;50.40;101158.47;5036688;28;66749;-36
2024/02/11 09:13:21;;;;;;;1.92;1.10;;;;;;;34.19;50.82;101153.75;5038209;28;69744;-36
2024/02/11 09:15:53;;;;;;;1.17;1.08;;;;;;;34.31;50.82;101163.81;5038617;28;66940;-35
2024/02/11 09:18:23;;;;;;;4.72;1.23;;;;;;;34.35;50.73;101163.13;5034008;28;69206;-35
2024/02/11 09:20:54;;;;;;;1.20;1.10;;;;;;;34.47;50.63;101160.38;5036453;28;67499;-36
2024/02/11 09:23:25;;;;;;;1.70;1.60;;;;;;;34.56;50.62;101169.03;5036317;28;70329;-36
2024/02/11 09:25:55;;;;;;;1.40;1.30;;;;;;;34.63;50.66;101167.84;5040074;28;66579;-36
2024/02/11 09:28:26;;;;;;;1.07;0.93;;;;;;;34.68;50.51;101159.75;5038587;28;69928;-35
2024/02/11 09:30:57;;;;;;;1.05;0.95;;;;;;;34.75;51.11;101167.00;5042064;28;66267;-36
2024/02/11 09:33:28;;;;;;;1.45;1.10;;;;;;;34.83;50.81;101174.81;5040623;28;70459;-38
2024/02/11 09:35:59;;;;;;;2.83;0.77;;;;;;;34.88;50.48;101177.63;5041485;28;66293;-35
2024/02/11 09:38:30;;;;;;;1.33;1.23;;;;;;;34.94;50.98;101165.78;5041682;28;70137;-35
2024/02/11 09:41:04;;;;;;;1.08;0.98;;;;;;;35.02;50.96;101181.75;5041742;28;65526;-35
2024/02/11 09:43:39;;;;;;;2.03;1.10;;;;;;;35.09;50.97;101184.34;5042088;28;69596;-37
2024/02/11 09:46:12;;;;;;;1.95;1.40;;;;;;;35.07;50.70;101170.13;5021576;28;65197;-35
2024/02/11 09:48:45;;;;;;;2.30;1.95;;;;;;;35.17;51.53;101185.88;5041457;28;70541;-35
2024/02/11 09:51:19;;;;;;;9.40;2.30;;;;;;;35.01;51.35;101152.81;5040810;28;66297;-36
2024/02/11 09:53:55;;;;;;;11.57;3.58;;;;;;;35.12;51.64;101160.16;5040936;28;70206;-36
2024/02/11 09:56:26;;;;;;;4.63;3.63;;;;;;;35.29;52.09;101181.19;5041554;28;65899;-36
2024/02/11 09:59:00;;;;;;;3.88;3.38;;;;;;;35.36;52.37;101190.91;5040064;28;69168;-35
2024/02/11 10:01:33;;;;;;;3.20;2.63;;;;;;;35.44;51.85;101200.59;5041827;28;66523;-38
2024/02/11 10:04:06;;;;;;;2.65;2.45;;;;;;;35.46;52.29;101195.69;5041595;28;70230;-36
2024/02/11 10:06:42;;;;;;;2.80;2.55;;;;;;;35.52;51.77;101205.66;5039674;28;66475;-36
2024/02/11 10:09:12;;;;;;;6.05;3.10;;;;;;;35.57;52.22;101203.03;5030975;28;70038;-35
2024/02/11 10:11:43;;;;;;;9.45;2.88;;;;;;;35.58;52.42;101199.25;5039547;28;66194;-36
2024/02/11 10:14:15;;;;;;;5.35;2.55;;;;;;;35.57;51.87;101213.94;5041532;28;70371;-35
2024/02/11 10:16:46;;;;;;;3.10;2.80;;;;;;;35.61;52.04;101208.84;5041558;28;65986;-35
2024/02/11 10:19:17;;;;;;;3.55;2.65;;;;;;;35.56;52.75;101201.38;5039854;28;70467;-35
2024/02/11 10:21:47;;;;;;;3.00;2.72;;;;;;;35.61;52.70;101221.63;5041089;28;66474;-36
2024/02/11 10:24:18;;;;;;;6.50;2.65;;;;;;;35.63;52.35;101219.50;5040403;28;70111;-35
2024/02/11 10:26:49;;;;;;;2.78;2.53;;;;;;;35.63;52.23;101216.78;5038919;28;66674;-35
2024/02/11 10:29:20;;;;;;;4.47;2.67;;;;;;;35.61;52.79;101208.84;5039765;28;69426;-36
2024/02/11 10:31:53;;;;;;;4.38;2.75;;;;;;;35.65;52.87;101214.63;5041213;28;66959;-35
2024/02/11 10:34:24;;;;;;;5.45;3.50;;;;;;;35.67;53.03;101228.88;5036600;28;69342;-35
2024/02/11 10:36:55;;;;;;;4.90;3.55;;;;;;;35.64;52.65;101229.38;5029186;28;65407;-36
2024/02/11 10:39:26;;;;;;;;;;;;;;;35.69;52.52;101232.16;5040375;28;70488;-37
2024/02/11 10:41:56;;;;;;;4.32;4.03;;;;;;;35.69;53.22;101237.63;5038614;28;66804;-36
2024/02/11 10:44:27;;;;;;;5.87;5.43;;;;;;;35.62;53.24;101239.69;5040431;28;69589;-36
2024/02/11 10:46:59;;;;;;;6.57;5.97;;;;;;;35.58;53.36;101242.91;5040669;28;66504;-37
2024/02/11 10:49:30;;;;;;;6.60;6.13;;;;;;;35.58;53.69;101242.91;5040288;28;70278;-37
2024/02/11 10:52:07;;;;;;;6.50;6.00;;;;;;;35.46;53.86;101228.44;5042245;28;65806;-36
2024/02/11 10:54:45;;;;;;;6.43;6.03;;;;;;;35.44;53.48;101227.03;5037684;28;70023;-36
2024/02/11 10:57:21;;;;;;;6.40;5.90;;;;;;;35.39;54.17;101225.03;5041312;28;67044;-36
2024/02/11 10:59:59;;;;;;;9.38;6.25;;;;;;;35.35;54.40;101232.91;5041895;28;69972;-36
2024/02/11 11:02:34;;;;;;;7.18;6.68;;;;;;;35.53;54.22;101259.16;5040746;28;66187;-36
2024/02/11 11:05:11;;;;;;;9.43;8.73;;;;;;;35.51;54.65;101272.19;5040193;28;69958;-40
2024/02/11 11:07:42;;;;;;;12.77;10.18;;;;;;;35.50;54.42;101275.19;5039624;28;66433;-36
2024/02/11 11:10:13;;;;;;;10.93;9.87;;;;;;;35.48;54.51;101280.88;5039405;28;69646;-38
2024/02/11 11:12:47;;;;;;;12.15;10.98;;;;;;;35.49;55.20;101282.50;5037599;28;66373;-36
2024/02/11 11:15:27;;;;;;;11.10;10.40;;;;;;;35.44;55.29;101281.56;5033679;28;70623;-36
2024/02/11 11:18:01;;;;;;;18.35;11.30;;;;;;;35.44;55.33;101287.88;5036876;28;65988;-35
2024/02/11 11:20:57;;;;;;;18.85;11.88;;;;;;;35.34;55.05;101274.03;5036551;28;70364;-36
2024/02/11 11:23:28;;;;;;;20.27;12.73;;;;;;;35.39;55.11;101287.78;5033085;28;65011;-36
2024/02/11 11:25:59;;;;;;;23.77;12.35;;;;;;;35.37;54.98;101295.38;5035341;28;70764;-36
2024/02/11 11:28:30;;;;;;;19.58;11.50;;;;;;;35.25;55.27;101292.69;5034904;28;66040;-35
2024/02/11 11:31:02;;;;;;;;;;;;;;;35.13;57.46;101317.25;5035744;28;70098;-35
2024/02/11 11:33:34;;;;;;;14.32;9.40;;;;;;;35.13;56.60;101295.44;5036464;28;66843;-35
2024/02/11 11:36:05;;;;;;;25.08;11.32;;;;;;;35.19;56.82;101326.38;5035952;28;69652;-34
2024/02/11 11:38:36;;;;;;;28.45;11.93;;;;;;;35.14;56.67;101328.97;5032633;28;66504;-33
2024/02/11 11:41:09;;;;;;;20.75;11.13;;;;;;;35.01;56.75;101324.56;5035409;28;70013;-41
2024/02/11 11:43:40;;;;;;;14.60;10.35;;;;;;;35.00;56.89;101328.38;5036025;28;66845;-34